createdAt,value
2018-07-12T00:00:06.318Z,12.27
2018-07-12T00:00:39.263Z,13.67
2018-07-12T00:01:12.199Z,13.30
2018-07-12T00:01:45.098Z,13.57
2018-07-12T00:02:17.978Z,13.93
2018-07-12T00:02:50.876Z,13.50
2018-07-12T00:03:23.770Z,13.30
2018-07-12T00:03:56.876Z,13.10
2018-07-12T00:04:29.742Z,14.30
2018-07-12T00:05:02.638Z,13.23
2018-07-12T00:05:35.584Z,13.77
2018-07-12T00:06:08.498Z,13.57
2018-07-12T00:06:41.434Z,12.80
2018-07-12T00:07:14.324Z,13.40
2018-07-12T00:07:47.194Z,13.80
2018-07-12T00:08:20.112Z,12.70
2018-07-12T00:08:53.018Z,13.57
2018-07-12T00:09:26.523Z,12.50
2018-07-12T00:09:59.468Z,13.37
2018-07-12T00:10:32.339Z,13.10
2018-07-12T00:11:05.245Z,12.93
2018-07-12T00:11:38.154Z,13.00
2018-07-12T00:12:11.036Z,13.63
2018-07-12T00:12:43.922Z,12.33
2018-07-12T00:13:16.790Z,14.33
2018-07-12T00:13:50.022Z,13.30
2018-07-12T00:14:22.901Z,14.40
2018-07-12T00:14:55.813Z,13.80
2018-07-12T00:15:28.689Z,13.77
2018-07-12T00:16:01.561Z,13.10
2018-07-12T00:16:34.429Z,13.63
2018-07-12T00:17:07.439Z,12.40
2018-07-12T00:17:40.313Z,13.67
2018-07-12T00:18:13.195Z,14.07
2018-07-12T00:18:46.081Z,13.73
2018-07-12T00:19:18.999Z,12.83
2018-07-12T00:19:51.882Z,13.33
2018-07-12T00:20:24.780Z,12.60
2018-07-12T00:20:57.660Z,11.97
2018-07-12T00:21:30.551Z,13.67
2018-07-12T00:22:03.439Z,12.67
2018-07-12T00:22:36.374Z,13.17
2018-07-12T00:23:09.265Z,12.40
2018-07-12T00:23:42.137Z,13.03
2018-07-12T00:24:15.075Z,13.13
2018-07-12T00:24:47.947Z,13.27
2018-07-12T00:25:20.830Z,13.30
2018-07-12T00:25:53.733Z,12.50
2018-07-12T00:26:26.633Z,12.10
2018-07-12T00:26:59.528Z,13.73
2018-07-12T00:27:32.441Z,13.70
2018-07-12T00:28:05.373Z,13.23
2018-07-12T00:28:38.272Z,13.50
2018-07-12T00:29:11.163Z,13.10
2018-07-12T00:29:44.033Z,13.70
2018-07-12T00:30:17.310Z,13.50
2018-07-12T00:30:50.195Z,12.87
2018-07-12T00:31:23.085Z,13.70
2018-07-12T00:31:55.977Z,13.83
2018-07-12T00:32:29.115Z,12.23
2018-07-12T00:33:01.932Z,12.87
2018-07-12T00:33:34.885Z,13.13
2018-07-12T00:34:07.936Z,12.10
2018-07-12T00:34:40.823Z,12.60
2018-07-12T00:35:13.717Z,13.80
2018-07-12T00:35:46.599Z,13.90
2018-07-12T00:36:19.837Z,12.17
2018-07-12T00:36:52.721Z,12.33
2018-07-12T00:37:25.602Z,13.03
2018-07-12T00:37:58.488Z,14.00
2018-07-12T00:38:31.394Z,12.70
2018-07-12T00:39:05.196Z,12.30
2018-07-12T00:39:38.088Z,12.57
2018-07-12T00:40:11.036Z,12.73
2018-07-12T00:40:43.930Z,14.10
2018-07-12T00:41:56.008Z,13.93
2018-07-12T00:42:29.032Z,12.70
2018-07-12T00:43:01.908Z,13.20
2018-07-12T00:43:34.770Z,13.20
2018-07-12T00:44:07.706Z,13.20
2018-07-12T00:44:40.575Z,12.87
2018-07-12T00:45:13.460Z,12.13
2018-07-12T00:45:46.349Z,13.13
2018-07-12T00:46:19.233Z,13.50
2018-07-12T00:46:52.103Z,13.97
2018-07-12T00:47:25.061Z,12.90
2018-07-12T00:47:58.020Z,13.33
2018-07-12T00:48:30.892Z,12.70
2018-07-12T00:49:03.761Z,13.60
2018-07-12T00:49:36.667Z,13.50
2018-07-12T00:50:09.562Z,12.40
2018-07-12T00:50:42.433Z,14.30
2018-07-12T00:51:15.393Z,11.53
2018-07-12T00:51:48.300Z,13.27
2018-07-12T00:52:21.188Z,12.73
2018-07-12T00:52:54.057Z,12.10
2018-07-12T00:53:26.961Z,12.17
2018-07-12T00:53:59.880Z,11.83
2018-07-12T00:54:32.776Z,11.30
2018-07-12T00:55:05.676Z,12.30
2018-07-12T00:55:38.573Z,12.00
2018-07-12T00:56:11.443Z,12.00
2018-07-12T00:56:44.321Z,11.70
2018-07-12T00:57:17.208Z,11.20
2018-07-12T00:57:50.104Z,10.70
2018-07-12T00:58:22.990Z,11.53
2018-07-12T00:58:55.882Z,11.70
2018-07-12T00:59:28.772Z,11.60
2018-07-12T01:00:01.671Z,11.00
2018-07-12T01:00:34.607Z,11.83
2018-07-12T01:01:07.527Z,12.30
2018-07-12T01:01:40.515Z,11.20
2018-07-12T01:02:13.413Z,11.53
2018-07-12T01:02:46.739Z,11.97
2018-07-12T01:03:19.615Z,11.53
2018-07-12T01:03:52.513Z,10.70
2018-07-12T01:04:25.374Z,12.07
2018-07-12T01:04:58.240Z,11.90
2018-07-12T01:05:31.159Z,11.97
2018-07-12T01:06:04.069Z,11.97
2018-07-12T01:06:36.958Z,12.73
2018-07-12T01:07:09.826Z,12.33
2018-07-12T01:07:42.697Z,11.80
2018-07-12T01:08:15.584Z,11.90
2018-07-12T01:08:48.484Z,11.93
2018-07-12T01:09:21.379Z,12.00
2018-07-12T01:09:54.315Z,12.07
2018-07-12T01:10:27.186Z,12.50
2018-07-12T01:11:00.113Z,13.00
2018-07-12T01:11:33.349Z,12.33
2018-07-12T01:12:06.243Z,12.80
2018-07-12T01:12:39.125Z,13.00
2018-07-12T01:13:12.018Z,11.83
2018-07-12T01:13:44.911Z,12.53
2018-07-12T01:14:17.789Z,12.77
2018-07-12T01:14:50.656Z,11.80
2018-07-12T01:15:23.546Z,12.10
2018-07-12T01:15:56.415Z,12.03
2018-07-12T01:16:29.337Z,11.70
2018-07-12T01:17:02.229Z,11.17
2018-07-12T01:17:35.075Z,11.20
2018-07-12T01:18:07.957Z,12.10
2018-07-12T01:18:40.822Z,10.87
2018-07-12T01:19:13.712Z,12.73
2018-07-12T01:19:46.588Z,12.43
2018-07-12T01:20:19.455Z,11.53
2018-07-12T01:20:52.321Z,12.70
2018-07-12T01:21:25.209Z,11.30
2018-07-12T01:21:58.123Z,11.50
2018-07-12T01:22:30.991Z,10.83
2018-07-12T01:23:03.911Z,10.77
2018-07-12T01:23:36.867Z,11.10
2018-07-12T01:24:09.729Z,12.37
2018-07-12T01:24:42.613Z,11.40
2018-07-12T01:25:15.475Z,12.40
2018-07-12T01:25:48.343Z,12.03
2018-07-12T01:26:21.214Z,11.40
2018-07-12T01:26:54.111Z,12.13
2018-07-12T01:27:27.004Z,11.90
2018-07-12T01:27:59.895Z,12.60
2018-07-12T01:28:32.966Z,12.00
2018-07-12T01:29:05.853Z,11.63
2018-07-12T01:29:38.767Z,11.93
2018-07-12T01:30:11.643Z,12.57
2018-07-12T01:30:44.539Z,11.93
2018-07-12T01:31:17.447Z,11.43
2018-07-12T01:31:50.311Z,12.37
2018-07-12T01:32:23.185Z,12.50
2018-07-12T01:32:56.125Z,12.77
2018-07-12T01:33:29.013Z,13.00
2018-07-12T01:34:01.893Z,11.43
2018-07-12T01:34:34.773Z,12.00
2018-07-12T01:35:07.667Z,11.73
2018-07-12T01:35:40.926Z,12.73
2018-07-12T01:36:13.852Z,12.57
2018-07-12T01:36:46.851Z,13.17
2018-07-12T01:37:19.729Z,12.63
2018-07-12T01:37:52.614Z,13.30
2018-07-12T01:38:25.687Z,11.60
2018-07-12T01:38:58.746Z,11.57
2018-07-12T01:39:31.655Z,12.60
2018-07-12T01:40:04.527Z,11.07
2018-07-12T01:40:37.396Z,12.60
2018-07-12T01:41:10.283Z,11.50
2018-07-12T01:41:43.141Z,12.13
2018-07-12T01:42:16.179Z,12.40
2018-07-12T01:42:49.060Z,12.10
2018-07-12T01:43:21.990Z,12.80
2018-07-12T01:43:55.110Z,12.23
2018-07-12T01:44:28.069Z,11.57
2018-07-12T01:45:00.955Z,12.13
2018-07-12T01:45:33.849Z,13.00
2018-07-12T01:46:06.974Z,12.00
2018-07-12T01:46:39.744Z,12.47
2018-07-12T01:47:12.643Z,13.67
2018-07-12T01:47:45.521Z,13.40
2018-07-12T01:48:18.418Z,12.67
2018-07-12T01:48:51.425Z,13.80
2018-07-12T01:49:24.308Z,14.17
2018-07-12T01:49:57.206Z,12.73
2018-07-12T01:50:30.124Z,13.30
2018-07-12T01:51:03.017Z,13.63
2018-07-12T01:51:35.948Z,12.87
2018-07-12T01:52:09.099Z,12.07
2018-07-12T01:52:41.897Z,12.60
2018-07-12T01:53:14.778Z,13.10
2018-07-12T01:53:47.688Z,12.80
2018-07-12T01:54:20.573Z,13.70
2018-07-12T01:54:53.461Z,13.50
2018-07-12T01:55:26.499Z,13.17
2018-07-12T01:55:59.393Z,13.10
2018-07-12T01:56:32.279Z,12.90
2018-07-12T01:57:05.311Z,13.50
2018-07-12T01:57:38.187Z,13.03
2018-07-12T01:58:11.070Z,13.60
2018-07-12T01:58:43.963Z,13.03
2018-07-12T01:59:16.843Z,12.93
2018-07-12T01:59:49.753Z,13.20
2018-07-12T02:00:22.655Z,12.80
2018-07-12T02:00:56.529Z,12.77
2018-07-12T02:01:29.393Z,13.80
2018-07-12T02:02:02.297Z,12.50
2018-07-12T02:02:35.194Z,13.30
2018-07-12T02:03:08.085Z,13.97
2018-07-12T02:03:40.974Z,12.90
2018-07-12T02:04:13.862Z,12.47
2018-07-12T02:04:46.728Z,13.67
2018-07-12T02:05:19.617Z,13.73
2018-07-12T02:05:52.541Z,13.00
2018-07-12T02:06:25.425Z,13.60
2018-07-12T02:06:58.313Z,12.60
2018-07-12T02:07:31.197Z,12.90
2018-07-12T02:08:04.070Z,13.47
2018-07-12T02:08:36.940Z,13.40
2018-07-12T02:09:09.816Z,15.17
2018-07-12T02:09:42.686Z,13.80
2018-07-12T02:10:15.590Z,13.80
2018-07-12T02:10:48.481Z,13.17
2018-07-12T02:11:21.344Z,13.23
2018-07-12T02:11:54.198Z,14.10
2018-07-12T02:12:27.073Z,11.43
2018-07-12T02:13:00.817Z,13.67
2018-07-12T02:13:33.688Z,13.73
2018-07-12T02:14:06.565Z,13.30
2018-07-12T02:14:39.446Z,13.33
2018-07-12T02:15:12.331Z,12.30
2018-07-12T02:15:45.249Z,12.60
2018-07-12T02:16:18.117Z,12.80
2018-07-12T02:16:51.031Z,12.67
2018-07-12T02:17:24.078Z,12.23
2018-07-12T02:17:57.249Z,14.13
2018-07-12T02:18:30.120Z,12.50
2018-07-12T02:19:02.999Z,13.33
2018-07-12T02:19:35.895Z,12.27
2018-07-12T02:20:08.835Z,13.07
2018-07-12T02:20:41.705Z,12.80
2018-07-12T02:21:14.639Z,13.00
2018-07-12T02:21:47.509Z,14.00
2018-07-12T02:22:20.400Z,13.10
2018-07-12T02:22:53.731Z,13.50
2018-07-12T02:23:26.655Z,12.30
2018-07-12T02:23:59.603Z,13.17
2018-07-12T02:24:32.498Z,14.93
2018-07-12T02:25:05.392Z,13.93
2018-07-12T02:25:38.281Z,14.17
2018-07-12T02:26:11.147Z,14.67
2018-07-12T02:26:44.045Z,12.50
2018-07-12T02:27:16.930Z,12.83
2018-07-12T02:27:49.821Z,13.57
2018-07-12T02:28:22.736Z,13.10
2018-07-12T02:28:55.614Z,14.47
2018-07-12T02:29:28.501Z,13.50
2018-07-12T02:30:01.391Z,14.00
2018-07-12T02:30:34.277Z,13.93
2018-07-12T02:31:07.151Z,13.50
2018-07-12T02:31:40.030Z,13.97
2018-07-12T02:32:12.973Z,14.43
2018-07-12T02:32:45.839Z,13.33
2018-07-12T02:33:18.729Z,12.50
2018-07-12T02:33:51.601Z,14.43
2018-07-12T02:34:24.475Z,13.40
2018-07-12T02:34:57.414Z,13.23
2018-07-12T02:35:30.431Z,13.40
2018-07-12T02:36:03.333Z,12.83
2018-07-12T02:36:36.232Z,13.33
2018-07-12T02:37:09.136Z,13.87
2018-07-12T02:37:42.025Z,13.00
2018-07-12T02:38:14.951Z,14.00
2018-07-12T02:38:47.833Z,12.57
2018-07-12T02:39:20.717Z,12.73
2018-07-12T02:39:53.611Z,12.70
2018-07-12T02:40:26.492Z,13.30
2018-07-12T02:40:59.424Z,12.53
2018-07-12T02:41:32.303Z,13.07
2018-07-12T02:42:05.305Z,12.67
2018-07-12T02:42:38.197Z,13.23
2018-07-12T02:43:11.097Z,12.80
2018-07-12T02:43:44.008Z,12.43
2018-07-12T02:44:16.871Z,12.17
2018-07-12T02:44:49.855Z,11.83
2018-07-12T02:45:22.736Z,12.00
2018-07-12T02:45:55.617Z,12.37
2018-07-12T02:46:28.495Z,11.73
2018-07-12T02:47:01.375Z,12.67
2018-07-12T02:47:34.273Z,10.77
2018-07-12T02:48:07.459Z,11.90
2018-07-12T02:48:40.237Z,10.80
2018-07-12T02:49:13.124Z,12.97
2018-07-12T02:49:46.206Z,11.90
2018-07-12T02:50:19.108Z,12.20
2018-07-12T02:50:51.996Z,12.23
2018-07-12T02:51:24.897Z,12.17
2018-07-12T02:51:57.782Z,12.23
2018-07-12T02:52:30.648Z,12.20
2018-07-12T02:53:03.550Z,11.37
2018-07-12T02:53:36.450Z,11.67
2018-07-12T02:54:09.340Z,12.27
2018-07-12T02:54:42.572Z,12.70
2018-07-12T02:55:15.471Z,12.40
2018-07-12T02:55:48.379Z,12.07
2018-07-12T02:56:21.274Z,12.10
2018-07-12T02:56:54.157Z,12.37
2018-07-12T02:57:27.038Z,13.17
2018-07-12T02:57:59.935Z,11.50
2018-07-12T02:58:32.820Z,12.67
2018-07-12T02:59:05.862Z,11.50
2018-07-12T02:59:38.759Z,11.70
2018-07-12T03:00:11.680Z,11.47
2018-07-12T03:00:44.556Z,11.60
2018-07-12T03:01:17.430Z,11.47
2018-07-12T03:01:50.319Z,11.50
2018-07-12T03:02:23.198Z,12.03
2018-07-12T03:02:56.088Z,10.83
2018-07-12T03:03:29.172Z,11.57
2018-07-12T03:04:02.071Z,12.30
2018-07-12T03:04:35.132Z,11.60
2018-07-12T03:05:08.020Z,10.87
2018-07-12T03:05:40.920Z,12.30
2018-07-12T03:06:13.796Z,11.40
2018-07-12T03:06:46.714Z,11.93
2018-07-12T03:07:19.611Z,11.20
2018-07-12T03:07:52.480Z,12.70
2018-07-12T03:08:25.356Z,11.17
2018-07-12T03:08:58.225Z,11.43
2018-07-12T03:09:31.148Z,11.23
2018-07-12T03:10:04.026Z,11.70
2018-07-12T03:10:36.933Z,11.10
2018-07-12T03:11:09.926Z,11.30
2018-07-12T03:11:42.799Z,11.17
2018-07-12T03:12:15.697Z,12.57
2018-07-12T03:12:48.579Z,11.87
2018-07-12T03:13:21.469Z,11.97
2018-07-12T03:13:54.355Z,11.67
2018-07-12T03:14:27.255Z,11.27
2018-07-12T03:15:00.154Z,11.47
2018-07-12T03:15:33.026Z,11.57
2018-07-12T03:16:06.052Z,11.73
2018-07-12T03:16:38.949Z,10.67
2018-07-12T03:17:11.830Z,10.50
2018-07-12T03:17:44.692Z,11.13
2018-07-12T03:18:17.560Z,11.87
2018-07-12T03:18:50.436Z,11.43
2018-07-12T03:19:23.351Z,11.33
2018-07-12T03:19:56.215Z,10.33
2018-07-12T03:20:29.370Z,11.30
2018-07-12T03:21:02.156Z,10.23
2018-07-12T03:21:35.030Z,10.67
2018-07-12T03:22:07.938Z,9.60
2018-07-12T03:22:40.889Z,10.70
2018-07-12T03:23:13.797Z,9.97
2018-07-12T03:23:46.651Z,10.57
2018-07-12T03:24:19.534Z,10.10
2018-07-12T03:24:52.400Z,10.73
2018-07-12T03:25:25.270Z,10.03
2018-07-12T03:25:58.160Z,10.30
2018-07-12T03:26:31.055Z,10.63
2018-07-12T03:27:03.934Z,9.43
2018-07-12T03:27:36.807Z,9.70
2018-07-12T03:28:09.682Z,9.93
2018-07-12T03:28:42.578Z,9.87
2018-07-12T03:29:15.491Z,9.40
2018-07-12T03:29:48.354Z,9.27
2018-07-12T03:30:21.224Z,8.60
2018-07-12T03:30:54.170Z,8.90
2018-07-12T03:31:27.948Z,9.40
2018-07-12T03:32:00.819Z,9.70
2018-07-12T03:32:33.670Z,9.63
2018-07-12T03:33:06.792Z,8.80
2018-07-12T03:33:39.579Z,9.40
2018-07-12T03:34:12.452Z,8.60
2018-07-12T03:34:45.336Z,8.60
2018-07-12T03:35:18.226Z,8.60
2018-07-12T03:35:51.095Z,8.63
2018-07-12T03:36:23.998Z,9.30
2018-07-12T03:36:56.878Z,8.63
2018-07-12T03:37:29.772Z,7.77
2018-07-12T03:38:02.665Z,8.67
2018-07-12T03:38:35.548Z,8.47
2018-07-12T03:39:08.430Z,9.13
2018-07-12T03:39:41.292Z,8.80
2018-07-12T03:40:14.182Z,8.30
2018-07-12T03:40:47.050Z,8.50
2018-07-12T03:41:19.925Z,9.00
2018-07-12T03:41:52.822Z,7.83
2018-07-12T03:42:25.688Z,8.50
2018-07-12T03:48:01.313Z,7.80
2018-07-12T03:48:34.210Z,8.50
2018-07-12T03:49:07.080Z,8.13
2018-07-12T03:49:39.949Z,8.13
2018-07-12T03:50:12.818Z,8.43
2018-07-12T03:50:45.708Z,8.00
2018-07-12T03:51:18.587Z,8.17
2018-07-12T03:51:51.448Z,7.90
2018-07-12T03:52:24.364Z,7.23
2018-07-12T03:52:57.230Z,7.00
2018-07-12T03:53:30.110Z,7.87
2018-07-12T03:54:02.994Z,7.50
2018-07-12T03:54:35.864Z,7.40
2018-07-12T03:55:08.737Z,7.10
2018-07-12T03:55:41.604Z,8.37
2018-07-12T03:56:14.481Z,8.40
2018-07-12T03:56:47.370Z,7.60
2018-07-12T03:57:20.272Z,7.50
2018-07-12T03:57:53.194Z,7.13
2018-07-12T03:58:26.082Z,7.30
2018-07-12T03:58:58.954Z,7.07
2018-07-12T03:59:31.832Z,7.57
2018-07-12T04:00:04.714Z,7.30
2018-07-12T04:00:37.590Z,7.30
2018-07-12T04:01:10.493Z,6.93
2018-07-12T04:01:43.375Z,7.73
2018-07-12T04:02:16.236Z,6.63
2018-07-12T04:02:49.118Z,6.90
2018-07-12T04:03:22.181Z,8.10
2018-07-12T04:03:55.066Z,7.50
2018-07-12T04:04:27.934Z,7.87
2018-07-12T04:05:00.841Z,6.97
2018-07-12T04:05:33.710Z,7.33
2018-07-12T04:06:06.580Z,7.33
2018-07-12T04:06:39.455Z,6.73
2018-07-12T04:07:12.324Z,7.67
2018-07-12T04:07:45.326Z,7.30
2018-07-12T04:08:18.169Z,7.77
2018-07-12T04:08:51.080Z,7.53
2018-07-12T04:09:23.963Z,7.50
2018-07-12T04:09:57.166Z,7.87
2018-07-12T04:10:30.046Z,7.77
2018-07-12T04:11:03.212Z,7.40
2018-07-12T04:11:36.005Z,7.13
2018-07-12T04:12:08.899Z,7.53
2018-07-12T04:12:41.841Z,7.43
2018-07-12T04:13:14.720Z,7.47
2018-07-12T04:13:47.598Z,7.67
2018-07-12T04:14:20.518Z,7.20
2018-07-12T04:14:53.402Z,7.23
2018-07-12T04:15:26.282Z,7.80
2018-07-12T04:15:59.184Z,6.67
2018-07-12T04:16:32.046Z,7.53
2018-07-12T04:17:04.998Z,6.80
2018-07-12T04:17:37.866Z,7.50
2018-07-12T04:18:10.746Z,8.00
2018-07-12T04:18:43.619Z,7.10
2018-07-12T04:19:16.752Z,6.70
2018-07-12T04:19:49.564Z,7.27
2018-07-12T04:20:22.684Z,6.70
2018-07-12T04:20:55.692Z,6.50
2018-07-12T04:21:28.580Z,6.70
2018-07-12T04:22:01.454Z,7.23
2018-07-12T04:22:35.477Z,6.40
2018-07-12T04:23:08.375Z,5.23
2018-07-12T04:23:42.460Z,5.37
2018-07-12T04:24:15.361Z,6.13
2018-07-12T04:24:48.708Z,5.40
2018-07-12T04:25:21.606Z,5.93
2018-07-12T04:25:54.518Z,5.77
2018-07-12T04:26:27.382Z,5.50
2018-07-12T04:27:00.388Z,5.10
2018-07-12T04:27:33.264Z,5.87
2018-07-12T04:28:06.191Z,4.77
2018-07-12T04:28:39.066Z,5.37
2018-07-12T04:29:11.950Z,4.93
2018-07-12T04:29:44.820Z,5.10
2018-07-12T04:30:17.704Z,5.60
2018-07-12T04:30:50.623Z,4.97
2018-07-12T04:31:23.552Z,4.80
2018-07-12T04:31:56.688Z,4.83
2018-07-12T04:32:29.562Z,4.33
2018-07-12T04:33:02.440Z,5.43
2018-07-12T04:33:35.325Z,4.17
2018-07-12T04:34:08.210Z,4.73
2018-07-12T04:34:41.154Z,4.40
2018-07-12T04:35:14.187Z,4.60
2018-07-12T04:35:47.104Z,4.17
2018-07-12T04:36:19.986Z,4.07
2018-07-12T04:36:53.298Z,3.80
2018-07-12T04:37:26.212Z,4.17
2018-07-12T04:37:59.097Z,4.17
2018-07-12T04:38:31.971Z,4.60
2018-07-12T04:39:05.406Z,3.67
2018-07-12T04:39:38.290Z,3.40
2018-07-12T05:21:57.846Z,3.40
2018-07-12T05:22:30.935Z,3.30
2018-07-12T05:23:03.790Z,3.10
2018-07-12T05:23:36.942Z,2.80
2018-07-12T05:24:09.842Z,2.80
2018-07-12T05:24:42.716Z,2.60
2018-07-12T05:25:16.542Z,3.57
2018-07-12T05:25:49.718Z,3.07
2018-07-12T05:26:22.626Z,3.67
2018-07-12T05:26:55.518Z,2.83
2018-07-12T05:27:28.626Z,2.87
2018-07-12T05:28:01.525Z,3.20
2018-07-12T05:28:34.372Z,2.93
2018-07-12T05:29:07.542Z,3.63
2018-07-12T05:29:40.342Z,3.10
2018-07-12T05:30:13.250Z,3.77
2018-07-12T05:30:46.138Z,2.93
2018-07-12T05:31:19.160Z,3.17
2018-07-12T05:31:52.072Z,3.00
2018-07-12T05:32:24.984Z,3.60
2018-07-12T05:32:58.015Z,3.40
2018-07-12T05:33:30.913Z,3.17
2018-07-12T05:34:03.790Z,3.23
2018-07-12T05:34:36.706Z,3.20
2018-07-12T05:35:09.710Z,3.00
2018-07-12T05:35:43.612Z,3.00
2018-07-12T05:36:29.124Z,3.27
2018-07-12T05:37:03.100Z,2.63
2018-07-12T05:37:36.984Z,3.07
2018-07-12T05:38:11.674Z,2.63
2018-07-12T05:38:45.596Z,3.03
2018-07-12T05:39:20.026Z,3.33
2018-07-12T05:39:53.952Z,3.00
2018-07-12T05:40:27.880Z,2.73
2018-07-12T05:41:01.921Z,3.37
2018-07-12T05:41:35.769Z,2.57
2018-07-12T05:42:10.222Z,2.93
2018-07-12T05:42:44.496Z,2.90
2018-07-12T05:43:18.524Z,3.00
2018-07-12T05:43:52.384Z,2.90
2018-07-12T05:44:26.589Z,3.67
2018-07-12T05:45:01.665Z,2.53
2018-07-12T05:45:35.560Z,2.83
2018-07-12T05:46:09.547Z,3.03
2018-07-12T05:46:43.659Z,2.80
2018-07-12T05:47:18.615Z,3.00
2018-07-12T05:47:52.565Z,2.73
2018-07-12T05:48:26.440Z,2.40
2018-07-12T05:49:00.774Z,2.70
2018-07-12T05:49:35.002Z,2.77
2018-07-12T05:50:09.173Z,2.80
2018-07-12T05:50:47.997Z,3.20
2018-07-12T05:51:22.265Z,2.53
2018-07-12T05:51:56.471Z,3.80
2018-07-12T05:52:30.415Z,2.93
2018-07-12T05:53:04.624Z,3.10
2018-07-12T05:53:38.636Z,3.10
2018-07-12T05:54:12.517Z,2.90
2018-07-12T05:54:46.362Z,3.00
2018-07-12T05:55:20.240Z,2.77
2018-07-12T05:55:54.424Z,2.90
2018-07-12T05:56:28.646Z,2.77
2018-07-12T05:57:02.649Z,3.40
2018-07-12T05:57:36.911Z,2.60
2018-07-12T05:58:10.966Z,3.53
2018-07-12T05:58:44.857Z,3.20
2018-07-12T05:59:18.872Z,2.90
2018-07-12T05:59:52.956Z,2.90
2018-07-12T06:00:27.182Z,3.20
2018-07-12T06:01:01.443Z,3.30
2018-07-12T06:01:46.841Z,2.70
2018-07-12T06:02:22.162Z,2.70
2018-07-12T06:02:56.049Z,3.40
2018-07-12T06:03:30.308Z,2.97
2018-07-12T06:04:04.167Z,3.67
2018-07-12T06:04:38.364Z,3.30
2018-07-12T06:05:12.294Z,3.07
2018-07-12T06:05:46.500Z,3.10
2018-07-12T06:06:20.152Z,3.17
2018-07-12T06:06:53.940Z,3.23
2018-07-12T06:07:31.225Z,3.43
2018-07-12T06:08:05.102Z,3.03
2018-07-12T06:08:39.037Z,3.10
2018-07-12T06:09:13.074Z,3.03
2018-07-12T06:09:47.101Z,3.13
2018-07-12T06:10:20.952Z,2.87
2018-07-12T06:10:54.911Z,2.80
2018-07-12T06:11:29.110Z,3.40
2018-07-12T06:12:03.003Z,2.70
2018-07-12T06:12:36.951Z,2.90
2018-07-12T06:13:10.814Z,3.33
2018-07-12T06:13:44.942Z,2.40
2018-07-12T06:14:20.257Z,2.80
2018-07-12T06:14:54.191Z,3.43
2018-07-12T06:15:28.050Z,2.80
2018-07-12T06:16:01.894Z,3.50
2018-07-12T06:16:36.685Z,2.80
2018-07-12T06:17:10.853Z,2.73
2018-07-12T06:17:45.022Z,2.47
2018-07-12T06:18:18.909Z,3.20
2018-07-12T06:18:52.887Z,2.97
2018-07-12T06:19:27.195Z,2.87
2018-07-12T06:20:01.065Z,2.87
2018-07-12T06:20:35.059Z,3.20
2018-07-12T06:21:08.941Z,2.57
2018-07-12T06:21:42.793Z,2.70
2018-07-12T06:22:16.950Z,2.70
2018-07-12T06:22:50.974Z,2.80
2018-07-12T06:23:24.844Z,2.80
2018-07-12T06:23:59.053Z,2.77
2018-07-12T06:24:32.933Z,2.70
2018-07-12T06:25:07.175Z,2.70
2018-07-12T06:25:41.159Z,2.70
2018-07-12T06:26:15.035Z,2.90
2018-07-12T06:26:48.901Z,3.30
2018-07-12T06:27:22.869Z,2.90
2018-07-12T06:27:56.757Z,2.80
2018-07-12T06:28:30.613Z,2.60
2018-07-12T06:29:04.889Z,3.27
2018-07-12T06:29:39.116Z,2.83
2018-07-12T06:30:13.147Z,2.50
2018-07-12T06:30:46.993Z,3.00
2018-07-12T06:31:21.036Z,3.17
2018-07-12T06:31:55.001Z,2.73
2018-07-12T06:32:28.842Z,2.80
2018-07-12T06:33:03.017Z,3.17
2018-07-12T06:33:36.886Z,2.90
2018-07-12T06:34:11.123Z,2.97
2018-07-12T06:34:45.011Z,2.77
2018-07-12T06:35:19.218Z,2.73
2018-07-12T06:35:53.084Z,3.20
2018-07-12T06:36:26.920Z,3.00
2018-07-12T06:37:00.851Z,3.07
2018-07-12T06:37:34.885Z,2.93
2018-07-12T06:38:08.714Z,2.57
2018-07-12T06:38:42.892Z,3.27
2018-07-12T06:39:17.100Z,2.87
2018-07-12T06:39:50.983Z,3.23
2018-07-12T06:40:25.196Z,2.80
2018-07-12T06:40:59.031Z,3.37
2018-07-12T06:41:32.858Z,3.20
2018-07-12T06:42:07.078Z,3.47
2018-07-12T06:42:40.938Z,3.13
2018-07-12T06:43:15.331Z,3.17
2018-07-12T06:43:49.203Z,2.90
2018-07-12T06:44:23.128Z,2.93
2018-07-12T06:44:57.282Z,3.20
2018-07-12T06:45:31.182Z,2.90
2018-07-12T06:46:05.079Z,3.33
2018-07-12T06:46:39.249Z,2.90
2018-07-12T06:47:13.110Z,3.30
2018-07-12T06:47:47.315Z,2.83
2018-07-12T06:48:21.232Z,2.90
2018-07-12T06:48:55.089Z,2.70
2018-07-12T06:49:29.274Z,3.00
2018-07-12T06:50:03.511Z,2.90
2018-07-12T06:50:37.166Z,2.90
2018-07-12T06:51:10.701Z,3.03
2018-07-12T06:51:44.486Z,2.93
2018-07-12T06:52:18.385Z,3.13
2018-07-12T06:52:52.274Z,3.10
2018-07-12T06:53:26.657Z,2.87
2018-07-12T06:54:00.277Z,2.70
2018-07-12T06:54:34.067Z,3.23
2018-07-12T06:55:07.904Z,2.97
2018-07-12T06:55:41.775Z,3.30
2018-07-12T06:56:15.973Z,2.90
2018-07-12T06:56:49.841Z,2.83
2018-07-12T06:57:23.744Z,2.53
2018-07-12T06:57:57.645Z,3.07
2018-07-12T06:58:31.965Z,3.20
2018-07-12T06:59:08.973Z,2.63
2018-07-12T06:59:42.879Z,2.83
2018-07-12T07:00:16.779Z,2.80
2018-07-12T07:00:50.677Z,3.10
2018-07-12T07:01:24.301Z,2.50
2018-07-12T07:01:58.063Z,2.80
2018-07-12T07:02:32.015Z,2.77
2018-07-12T07:03:05.913Z,3.03
2018-07-12T07:03:39.811Z,2.70
2018-07-12T07:04:13.707Z,2.60
2018-07-12T07:04:47.603Z,2.30
2018-07-12T07:05:21.815Z,2.67
2018-07-12T07:05:56.011Z,2.50
2018-07-12T07:06:30.103Z,2.83
2018-07-12T07:07:04.287Z,2.17
2018-07-12T07:07:38.127Z,2.40
2018-07-12T07:08:12.662Z,2.70
2018-07-12T07:08:46.885Z,2.80
2018-07-12T07:09:21.413Z,3.00
2018-07-12T07:09:55.307Z,2.77
2018-07-12T07:10:29.510Z,2.80
2018-07-12T07:11:03.675Z,3.00
2018-07-12T07:11:38.012Z,2.97
2018-07-12T07:12:11.905Z,2.47
2018-07-12T07:12:45.771Z,2.80
2018-07-12T07:13:19.741Z,2.90
2018-07-12T07:13:54.079Z,2.67
2018-07-12T07:14:28.311Z,2.63
2018-07-12T07:15:12.803Z,2.70
2018-07-12T07:15:47.399Z,3.03
2018-07-12T07:16:21.469Z,3.33
2018-07-12T07:16:55.349Z,3.10
2018-07-12T07:17:29.237Z,3.03
2018-07-12T07:18:03.103Z,2.97
2018-07-12T07:18:37.005Z,2.97
2018-07-12T07:19:10.871Z,2.77
2018-07-12T07:19:44.496Z,2.90
2018-07-12T07:20:18.730Z,3.53
2018-07-12T07:20:52.706Z,2.40
2018-07-12T07:21:26.573Z,3.00
2018-07-12T07:22:00.439Z,2.50
2018-07-12T07:22:34.129Z,3.13
2018-07-12T07:23:08.265Z,2.83
2018-07-12T07:23:42.393Z,2.97
2018-07-12T07:24:16.252Z,3.00
2018-07-12T07:24:50.117Z,3.07
2018-07-12T07:25:24.125Z,3.50
2018-07-12T07:25:57.774Z,3.20
2018-07-12T07:26:31.544Z,2.73
2018-07-12T07:27:05.766Z,3.07
2018-07-12T07:27:39.627Z,3.47
2018-07-12T07:28:13.740Z,3.33
2018-07-12T07:28:53.943Z,3.00
2018-07-12T07:29:28.040Z,2.60
2018-07-12T07:30:02.218Z,3.00
2018-07-12T07:30:36.151Z,2.80
2018-07-12T07:31:10.370Z,3.47
2018-07-12T07:31:44.233Z,3.00
2018-07-12T07:32:18.171Z,3.07
2018-07-12T07:32:52.120Z,3.07
2018-07-12T07:33:25.973Z,2.87
2018-07-12T07:34:00.041Z,3.43
2018-07-12T07:34:33.860Z,3.00
2018-07-12T07:35:07.862Z,2.90
2018-07-12T07:35:41.811Z,2.87
2018-07-12T07:36:15.826Z,3.30
2018-07-12T07:36:49.692Z,3.17
2018-07-12T07:37:23.622Z,3.30
2018-07-12T07:37:57.837Z,3.83
2018-07-12T07:38:31.734Z,2.90
2018-07-12T07:39:07.302Z,3.47
2018-07-12T07:39:41.585Z,3.17
2018-07-12T07:40:15.796Z,3.50
2018-07-12T07:40:49.698Z,3.53
2018-07-12T07:41:23.529Z,3.60
2018-07-12T07:41:57.690Z,3.27
2018-07-12T07:42:31.604Z,3.77
2018-07-12T07:43:05.727Z,3.47
2018-07-12T07:43:39.717Z,3.37
2018-07-12T07:44:13.554Z,3.10
2018-07-12T07:44:47.766Z,4.23
2018-07-12T07:45:21.626Z,3.40
2018-07-12T07:45:55.870Z,3.17
2018-07-12T07:46:29.412Z,3.30
2018-07-12T07:47:03.286Z,3.10
2018-07-12T07:47:37.277Z,3.50
2018-07-12T07:48:10.796Z,3.30
2018-07-12T07:48:44.572Z,3.00
2018-07-12T07:49:18.461Z,3.20
2018-07-12T07:49:52.484Z,3.20
2018-07-12T07:50:26.702Z,2.60
2018-07-12T07:51:00.622Z,3.80
2018-07-12T07:51:34.499Z,3.40
2018-07-12T07:52:08.384Z,2.97
2018-07-12T07:52:42.363Z,3.50
2018-07-12T07:53:16.289Z,3.20
2018-07-12T07:53:50.469Z,3.70
2018-07-12T07:54:24.315Z,3.10
2018-07-12T07:54:58.220Z,2.60
2018-07-12T07:55:32.068Z,2.57
2018-07-12T07:56:06.075Z,2.97
2018-07-12T07:56:39.909Z,3.47
2018-07-12T07:57:13.825Z,3.47
2018-07-12T07:57:47.688Z,3.53
2018-07-12T07:58:21.512Z,3.33
2018-07-12T07:58:55.384Z,3.10
2018-07-12T07:59:30.648Z,3.50
2018-07-12T08:00:04.816Z,3.60
2018-07-12T08:00:38.671Z,3.20
2018-07-12T08:01:13.290Z,3.30
2018-07-12T08:01:47.168Z,3.40
2018-07-12T08:02:21.347Z,3.33
2018-07-12T08:02:55.542Z,3.17
2018-07-12T08:03:29.441Z,3.23
2018-07-12T08:04:03.794Z,3.27
2018-07-12T08:04:37.982Z,3.37